Fellsmere, Florida
Current Conditions -  °F | °C
As of 6:53 PM on Saturday 25 Oct 2014 (Local Time) from KVRB Reporting Station
Clear Clear  
Wind Chill: 22°   Ceiling: Unl
Heat Index: 22°   Visibility: 10mi
Dew Point: 16°   Wind: 7mph
Humidity: 70%   Direction: 350°N
Pressure: 29.93"   Gusts: NA
Location:  27.77°N, 80.6°W
Report Text: KVRB 252253Z AUTO 35006KT 10SM CLR 22/16 A2993 RMK AO2 SLP135 T02170161 $
Loading
Personal Weather Stations






























Interactive Weather Map
Tropical Storm Tracking
New forecast layout! Learn more

10-Day Weather Forecast

Advertisements
Track Severe Weather on mobile